Time;durP1;ratioP1;P1;durP2;ratioP2;P2;SDS_P1;SDS_P2;PMS_P1;PMS_P2;Temp;Humidity;BMP_temperature;BMP_pressure;BME280_temperature;BME280_humidity;BME280_pressure;Samples;Min_cycle;Max_cycle;Signal;HPM_P1;HPM_P2
2023/09/10 00:01:52;;;;;;;8.05;4.90;;;15.10;99.90;;;;;;4194650;28;20045;-60
2023/09/10 00:03:53;;;;;;;7.40;4.97;;;15.10;99.90;;;;;;4193446;28;20087;-60
2023/09/10 00:05:55;;;;;;;8.30;5.22;;;15.10;99.90;;;;;;4193285;28;20106;-63
2023/09/10 00:07:56;;;;;;;8.80;5.40;;;15.10;99.90;;;;;;4189767;28;20040;-62
2023/09/10 00:09:57;;;;;;;10.05;5.43;;;15.00;99.90;;;;;;4176009;28;20029;-62
2023/09/10 00:11:58;;;;;;;11.55;5.10;;;15.00;99.90;;;;;;4193649;28;20028;-61
2023/09/10 00:13:59;;;;;;;6.68;5.32;;;15.00;99.90;;;;;;4192394;28;20082;-63
2023/09/10 00:16:01;;;;;;;11.55;5.57;;;14.90;99.90;;;;;;4194122;28;20036;-60
2023/09/10 00:18:02;;;;;;;7.75;4.90;;;14.80;99.90;;;;;;4193243;28;20089;-62
2023/09/10 00:20:05;;;;;;;8.55;4.75;;;14.80;99.90;;;;;;4193744;28;20125;-61
2023/09/10 00:22:06;;;;;;;10.38;5.15;;;14.80;99.90;;;;;;4192610;28;20489;-60
2023/09/10 00:24:08;;;;;;;7.15;4.95;;;14.80;99.90;;;;;;4194285;28;20036;-63
2023/09/10 00:26:10;;;;;;;11.93;4.70;;;14.80;99.90;;;;;;4192312;28;20496;-63
2023/09/10 00:28:11;;;;;;;9.88;4.90;;;14.80;99.90;;;;;;4194287;28;20097;-61
2023/09/10 00:30:12;;;;;;;12.55;4.80;;;14.90;99.90;;;;;;4193080;28;20100;-58
2023/09/10 00:32:13;;;;;;;7.50;4.55;;;14.90;99.90;;;;;;4193273;28;20044;-62
2023/09/10 00:34:14;;;;;;;6.63;4.53;;;14.90;99.90;;;;;;4193108;28;20469;-62
2023/09/10 00:36:16;;;;;;;7.60;4.95;;;14.90;99.90;;;;;;4193394;28;20028;-63
2023/09/10 00:38:17;;;;;;;8.45;4.78;;;15.00;99.90;;;;;;4192163;28;20036;-62
2023/09/10 00:40:18;;;;;;;7.75;4.70;;;15.00;99.90;;;;;;4193599;28;20032;-60
2023/09/10 00:42:19;;;;;;;8.05;4.05;;;15.10;99.90;;;;;;4193128;28;20078;-59
2023/09/10 00:44:23;;;;;;;5.65;4.25;;;15.10;99.90;;;;;;4192959;28;20427;-62
2023/09/10 00:46:24;;;;;;;7.20;4.97;;;15.10;99.90;;;;;;4193442;28;20066;-59
2023/09/10 00:48:25;;;;;;;6.30;4.30;;;15.10;99.90;;;;;;4192552;28;20162;-62
2023/09/10 00:50:27;;;;;;;7.60;4.63;;;15.00;99.90;;;;;;4193659;28;20070;-62
2023/09/10 00:52:29;;;;;;;8.20;4.68;;;15.00;99.90;;;;;;4193115;28;20436;-61
2023/09/10 00:54:35;;;;;;;6.57;4.88;;;15.00;99.90;;;;;;4193108;28;20066;-60
2023/09/10 00:56:36;;;;;;;6.47;4.40;;;15.00;99.90;;;;;;4174011;28;20448;-57
2023/09/10 00:58:38;;;;;;;8.32;5.05;;;15.00;99.90;;;;;;4193926;28;20465;-61
2023/09/10 01:00:42;;;;;;;8.77;5.78;;;15.00;99.90;;;;;;4192281;28;20040;-61
2023/09/10 01:02:44;;;;;;;7.57;4.75;;;15.00;99.90;;;;;;4191733;28;20074;-62
2023/09/10 01:04:45;;;;;;;8.45;4.60;;;14.90;99.90;;;;;;4191962;28;20056;-59
2023/09/10 01:06:47;;;;;;;5.93;4.60;;;14.90;99.90;;;;;;4193667;28;20420;-61
2023/09/10 01:08:48;;;;;;;8.02;4.10;;;15.00;99.90;;;;;;4192890;28;20025;-60
2023/09/10 01:11:12;;;;;;;7.45;4.38;;;15.00;99.90;;;;;;4192678;28;20101;-62
2023/09/10 01:13:36;;;;;;;8.30;4.22;;;15.00;99.90;;;;;;4192632;28;20423;-63
2023/09/10 01:15:53;;;;;;;7.80;4.63;;;14.90;99.90;;;;;;4180583;28;20040;-62
2023/09/10 01:18:13;;;;;;;6.47;4.72;;;14.90;99.90;;;;;;4192752;28;20029;-62
2023/09/10 01:20:23;;;;;;;;;;;14.90;99.90;;;;;;4194306;28;20082;-62
2023/09/10 01:22:35;;;;;;;5.57;4.60;;;14.80;99.90;;;;;;4181695;28;19916;-63
2023/09/10 01:24:36;;;;;;;8.15;4.68;;;14.70;99.90;;;;;;4193029;28;20478;-62
2023/09/10 01:26:37;;;;;;;4.30;3.55;;;14.80;99.90;;;;;;4192379;28;20037;-62
2023/09/10 01:28:38;;;;;;;7.65;4.35;;;14.70;99.90;;;;;;4192939;28;20106;-62
2023/09/10 01:30:39;;;;;;;7.07;5.05;;;14.80;99.90;;;;;;4175720;28;20041;-59
2023/09/10 01:33:02;;;;;;;6.13;4.40;;;14.70;99.90;;;;;;4177218;28;20489;-61
2023/09/10 01:35:22;;;;;;;6.30;4.35;;;14.60;99.90;;;;;;4180184;28;20537;-63
2023/09/10 01:37:53;;;;;;;6.65;4.90;;;14.60;99.90;;;;;;4191578;28;20090;-61
2023/09/10 01:39:58;;;;;;;7.60;4.28;;;14.60;99.90;;;;;;4192029;28;20036;-63
2023/09/10 01:41:59;;;;;;;9.05;5.15;;;14.60;99.90;;;;;;4191948;28;20040;-62
2023/09/10 01:44:02;;;;;;;6.93;4.75;;;14.60;99.90;;;;;;4192682;28;20123;-60
2023/09/10 01:46:05;;;;;;;8.07;4.55;;;14.50;99.90;;;;;;4193564;28;20177;-62
2023/09/10 01:48:06;;;;;;;6.93;4.72;;;14.40;99.90;;;;;;4192465;28;20059;-63
2023/09/10 01:50:08;;;;;;;7.20;4.05;;;14.40;99.90;;;;;;4195222;28;20118;-61
2023/09/10 01:52:10;;;;;;;7.95;4.65;;;14.40;99.90;;;;;;4195220;28;20081;-63
2023/09/10 01:54:11;;;;;;;9.65;4.85;;;14.40;99.90;;;;;;4196669;28;20416;-65
2023/09/10 01:56:12;;;;;;;9.48;4.80;;;14.40;99.90;;;;;;4195073;28;20070;-59
2023/09/10 01:58:13;;;;;;;7.45;4.60;;;14.40;99.90;;;;;;4196282;28;20036;-62
2023/09/10 02:00:15;;;;;;;8.07;5.30;;;14.30;99.90;;;;;;4195790;28;20025;-59
2023/09/10 02:02:17;;;;;;;7.47;4.65;;;14.30;99.90;;;;;;4194541;28;20161;-62
2023/09/10 02:04:18;;;;;;;7.72;4.43;;;14.40;99.90;;;;;;4194938;28;20052;-57
2023/09/10 02:06:19;;;;;;;11.48;5.03;;;14.30;99.90;;;;;;4193978;28;20558;-61
2023/09/10 02:08:20;;;;;;;8.80;4.95;;;14.40;99.90;;;;;;4196558;28;20028;-62
2023/09/10 02:10:23;;;;;;;8.52;4.85;;;14.30;99.90;;;;;;4194647;28;20049;-59
2023/09/10 02:12:24;;;;;;;7.05;4.47;;;14.40;99.90;;;;;;4195944;28;20114;-62
2023/09/10 02:14:26;;;;;;;6.85;3.72;;;14.40;99.90;;;;;;4194002;28;20044;-64
2023/09/10 02:16:27;;;;;;;8.65;4.90;;;14.30;99.90;;;;;;4195590;28;20033;-61
2023/09/10 02:18:28;;;;;;;6.57;4.13;;;14.30;99.90;;;;;;4193991;28;20090;-59
2023/09/10 02:20:36;;;;;;;6.18;4.80;;;14.20;99.90;;;;;;4195438;28;20048;-60
2023/09/10 02:22:39;;;;;;;6.93;4.35;;;14.30;99.90;;;;;;4194083;28;20530;-62
2023/09/10 02:24:40;;;;;;;4.53;3.92;;;14.20;99.90;;;;;;4195467;28;20403;-62
2023/09/10 02:26:41;;;;;;;6.85;4.72;;;14.10;99.90;;;;;;4194197;28;20570;-63
2023/09/10 02:28:42;;;;;;;6.90;3.60;;;14.10;99.90;;;;;;4195034;28;20036;-62
2023/09/10 02:30:43;;;;;;;6.10;4.30;;;14.10;99.90;;;;;;4195042;28;20024;-62
2023/09/10 02:32:44;;;;;;;6.72;4.20;;;14.10;99.90;;;;;;4195120;28;20051;-64
2023/09/10 02:34:45;;;;;;;9.57;4.80;;;14.10;99.90;;;;;;4194735;28;20090;-61
2023/09/10 02:36:46;;;;;;;8.00;4.90;;;14.00;99.90;;;;;;4194871;28;20461;-62
2023/09/10 02:38:48;;;;;;;10.00;4.63;;;13.90;99.90;;;;;;4195764;28;20036;-63
2023/09/10 02:40:49;;;;;;;6.43;4.93;;;13.80;99.90;;;;;;4193980;28;20036;-62
2023/09/10 02:42:50;;;;;;;7.32;4.28;;;13.70;99.90;;;;;;4196119;28;20098;-61
2023/09/10 02:44:51;;;;;;;9.07;5.75;;;13.60;99.90;;;;;;4194544;28;20506;-63
2023/09/10 02:46:52;;;;;;;10.05;5.15;;;13.60;99.90;;;;;;4195889;28;20554;-62
2023/09/10 02:48:53;;;;;;;9.07;5.13;;;13.60;99.90;;;;;;4193854;28;20094;-59
2023/09/10 02:50:55;;;;;;;9.70;5.97;;;13.60;99.90;;;;;;4194851;28;20044;-63
2023/09/10 02:52:56;;;;;;;8.05;5.65;;;13.60;99.90;;;;;;4194538;28;20033;-62
2023/09/10 02:54:57;;;;;;;7.53;5.20;;;13.60;99.90;;;;;;4195813;28;20499;-63
2023/09/10 02:56:58;;;;;;;7.50;5.43;;;13.60;99.90;;;;;;4194433;28;20083;-59
2023/09/10 02:58:59;;;;;;;6.95;5.60;;;13.60;99.90;;;;;;4194803;28;20040;-64
2023/09/10 03:01:05;;;;;;;8.43;6.40;;;13.60;99.90;;;;;;4194517;28;20029;-58
2023/09/10 03:03:06;;;;;;;11.97;6.57;;;13.60;99.90;;;;;;4194192;28;20388;-63
2023/09/10 03:05:08;;;;;;;7.43;5.90;;;13.60;99.90;;;;;;4194386;28;20093;-62
2023/09/10 03:07:09;;;;;;;10.05;6.70;;;13.70;99.90;;;;;;4194231;28;20079;-62
2023/09/10 03:09:11;;;;;;;9.60;6.13;;;13.70;99.90;;;;;;4194259;28;20074;-63
2023/09/10 03:11:12;;;;;;;9.07;6.13;;;13.70;99.90;;;;;;4193118;28;20028;-60
2023/09/10 03:13:14;;;;;;;10.33;7.00;;;13.60;99.90;;;;;;4195174;28;20036;-62
2023/09/10 03:15:16;;;;;;;8.43;5.37;;;13.70;99.90;;;;;;4193535;28;20121;-63
2023/09/10 03:17:18;;;;;;;8.23;6.00;;;13.70;99.90;;;;;;4193651;28;20032;-62
2023/09/10 03:19:19;;;;;;;6.93;5.03;;;13.70;99.90;;;;;;4194237;28;20083;-62
2023/09/10 03:21:21;;;;;;;8.63;6.00;;;13.70;99.90;;;;;;4194282;28;20469;-60
2023/09/10 03:23:22;;;;;;;7.13;5.40;;;13.60;99.90;;;;;;4193460;28;20036;-62
2023/09/10 03:25:23;;;;;;;7.73;5.13;;;13.60;99.90;;;;;;4194859;28;20074;-60
2023/09/10 03:27:24;;;;;;;7.03;4.57;;;13.70;99.90;;;;;;4193616;28;20086;-55
2023/09/10 03:29:26;;;;;;;7.43;5.13;;;13.60;99.90;;;;;;4195006;28;20033;-61
2023/09/10 03:31:28;;;;;;;7.87;4.80;;;13.60;99.90;;;;;;4192787;28;20041;-63
2023/09/10 03:33:29;;;;;;;9.17;5.10;;;13.60;99.90;;;;;;4193393;28;20499;-63
2023/09/10 03:35:30;;;;;;;8.48;4.95;;;13.50;99.90;;;;;;4193931;28;20036;-57
2023/09/10 03:37:31;;;;;;;7.23;4.93;;;13.50;99.90;;;;;;4193967;28;20101;-60
2023/09/10 03:39:33;;;;;;;8.20;5.07;;;13.50;99.90;;;;;;4194038;28;20040;-63
2023/09/10 03:41:34;;;;;;;13.77;4.53;;;13.50;99.90;;;;;;4193809;28;20024;-57
2023/09/10 03:43:35;;;;;;;6.83;4.67;;;13.50;99.90;;;;;;4194339;28;20109;-63
2023/09/10 03:45:37;;;;;;;9.33;5.00;;;13.50;99.90;;;;;;4193077;28;20476;-55
2023/09/10 03:47:38;;;;;;;10.23;4.70;;;13.40;99.90;;;;;;4194664;28;20032;-62
2023/09/10 03:49:39;;;;;;;6.83;4.30;;;13.40;99.90;;;;;;4193523;28;20523;-61
2023/09/10 03:51:40;;;;;;;6.30;4.90;;;13.40;99.90;;;;;;4194767;28;20386;-62
2023/09/10 03:53:41;;;;;;;9.07;4.40;;;13.50;99.90;;;;;;4192397;28;20094;-63
2023/09/10 03:55:42;;;;;;;6.83;4.77;;;13.40;99.90;;;;;;4194623;28;20033;-57
2023/09/10 03:57:43;;;;;;;10.47;5.07;;;13.40;99.90;;;;;;4192928;28;20041;-62
2023/09/10 03:59:44;;;;;;;9.67;4.63;;;13.30;99.90;;;;;;4194552;28;20078;-59
2023/09/10 04:01:46;;;;;;;6.37;4.87;;;13.40;99.90;;;;;;4193460;28;20514;-58
2023/09/10 04:03:47;;;;;;;7.07;5.07;;;13.40;99.90;;;;;;4193778;28;20056;-61
2023/09/10 04:05:48;;;;;;;10.17;5.60;;;13.40;99.90;;;;;;4193062;28;20048;-61
2023/09/10 04:07:50;;;;;;;11.07;5.13;;;13.40;99.90;;;;;;4191177;28;20449;-60
2023/09/10 04:09:51;;;;;;;7.47;5.40;;;13.40;99.90;;;;;;4193015;28;20036;-60
2023/09/10 04:11:54;;;;;;;7.77;4.57;;;13.40;99.90;;;;;;4192006;28;20040;-60
2023/09/10 04:13:55;;;;;;;11.73;5.40;;;13.50;99.90;;;;;;4193774;28;20503;-62
2023/09/10 04:15:56;;;;;;;8.23;5.33;;;13.50;99.90;;;;;;4192594;28;20082;-60
2023/09/10 04:17:57;;;;;;;7.20;5.47;;;13.50;99.90;;;;;;4192815;28;20036;-58
2023/09/10 04:19:58;;;;;;;7.03;5.50;;;13.50;99.90;;;;;;4192420;28;20033;-60
2023/09/10 04:22:00;;;;;;;10.47;6.30;;;13.60;99.90;;;;;;4193221;28;20867;-59
2023/09/10 04:24:01;;;;;;;13.27;6.10;;;13.70;99.90;;;;;;4193116;28;20488;-59
2023/09/10 04:26:02;;;;;;;11.23;6.17;;;13.80;99.90;;;;;;4193663;28;20044;-63
2023/09/10 04:28:03;;;;;;;11.43;6.63;;;13.90;99.90;;;;;;4192199;28;20102;-62
2023/09/10 04:30:05;;;;;;;7.67;5.40;;;14.20;99.90;;;;;;4193695;28;20177;-61
2023/09/10 04:32:06;;;;;;;10.57;5.83;;;14.40;99.90;;;;;;4192966;28;20097;-60
2023/09/10 04:34:07;;;;;;;9.30;6.20;;;14.70;99.90;;;;;;4193567;28;20426;-58
2023/09/10 04:36:09;;;;;;;7.53;6.20;;;15.00;99.90;;;;;;4193546;28;20040;-63
2023/09/10 04:38:10;;;;;;;8.00;6.78;;;15.20;99.90;;;;;;4193327;28;20040;-62
2023/09/10 04:40:11;;;;;;;9.82;6.10;;;15.50;99.90;;;;;;4175376;28;20098;-62
2023/09/10 04:42:12;;;;;;;14.18;6.43;;;15.80;99.90;;;;;;4192545;28;20028;-62
2023/09/10 04:44:14;;;;;;;9.20;6.07;;;16.00;99.90;;;;;;4190678;28;20542;-60
2023/09/10 04:46:15;;;;;;;8.23;6.15;;;16.20;99.90;;;;;;4192797;28;20078;-63
2023/09/10 04:48:17;;;;;;;12.65;6.38;;;16.40;99.90;;;;;;4193981;28;20020;-62
2023/09/10 04:50:18;;;;;;;7.75;5.57;;;16.60;99.90;;;;;;4192389;28;20032;-60
2023/09/10 04:52:20;;;;;;;9.40;5.72;;;16.90;99.90;;;;;;4192990;28;20094;-58
2023/09/10 04:54:21;;;;;;;8.15;5.63;;;17.10;99.90;;;;;;4192799;28;20083;-62
2023/09/10 04:56:22;;;;;;;8.73;5.05;;;17.30;99.90;;;;;;4193869;28;20082;-60
2023/09/10 04:58:23;;;;;;;9.15;5.25;;;17.60;99.90;;;;;;4192019;28;20103;-63
2023/09/10 05:00:24;;;;;;;13.45;5.82;;;17.90;99.90;;;;;;4194226;28;20086;-59
2023/09/10 05:02:26;;;;;;;11.75;5.63;;;18.30;99.90;;;;;;4174239;28;20436;-62
2023/09/10 05:04:28;;;;;;;9.23;5.82;;;18.90;99.90;;;;;;4192783;28;20562;-63
2023/09/10 05:06:29;;;;;;;7.05;5.20;;;19.30;99.90;;;;;;4191589;28;20105;-62
2023/09/10 05:08:31;;;;;;;8.27;5.22;;;19.50;99.90;;;;;;4192773;28;20542;-62
2023/09/10 05:10:32;;;;;;;6.65;4.95;;;19.70;99.90;;;;;;4192821;28;20032;-61
2023/09/10 05:12:34;;;;;;;8.50;5.95;;;19.90;99.90;;;;;;4192079;28;20574;-61
2023/09/10 05:14:35;;;;;;;9.43;5.18;;;20.20;99.90;;;;;;4192511;28;20106;-62
2023/09/10 05:16:36;;;;;;;9.00;4.93;;;20.60;99.90;;;;;;4174632;28;20029;-60
2023/09/10 05:18:39;;;;;;;9.20;5.45;;;20.90;99.90;;;;;;4191806;28;20467;-60
2023/09/10 05:20:41;;;;;;;7.30;5.13;;;21.10;99.90;;;;;;4175034;28;20053;-62
2023/09/10 05:22:42;;;;;;;6.65;5.47;;;21.20;99.90;;;;;;4176842;28;20163;-61
2023/09/10 05:24:43;;;;;;;8.50;6.00;;;21.10;99.90;;;;;;4177100;28;20044;-61
2023/09/10 05:26:44;;;;;;;9.65;5.28;;;21.20;99.90;;;;;;4180273;28;20044;-60
2023/09/10 05:28:45;;;;;;;5.80;4.75;;;21.50;99.90;;;;;;4193488;28;20044;-64
2023/09/10 05:30:46;;;;;;;9.90;6.07;;;21.40;99.90;;;;;;4196286;28;20094;-60
2023/09/10 05:32:48;;;;;;;7.57;5.05;;;21.40;99.90;;;;;;4193511;28;20082;-63
2023/09/10 05:34:49;;;;;;;7.38;5.15;;;21.60;99.90;;;;;;4196280;28;20526;-64
2023/09/10 05:36:50;;;;;;;9.35;5.25;;;21.70;99.90;;;;;;4195067;28;20032;-63
2023/09/10 05:38:52;;;;;;;9.80;5.38;;;21.70;99.90;;;;;;4195194;28;20029;-62
2023/09/10 05:40:54;;;;;;;7.25;4.80;;;21.70;99.90;;;;;;4195046;28;20094;-60
2023/09/10 05:42:55;;;;;;;7.53;5.47;;;22.10;99.90;;;;;;4193787;28;20481;-59
2023/09/10 05:44:56;;;;;;;15.75;6.05;;;22.50;99.90;;;;;;4195306;28;20133;-63
2023/09/10 05:46:58;;;;;;;11.45;6.20;;;22.70;99.90;;;;;;4195154;28;20086;-63
2023/09/10 05:48:59;;;;;;;14.98;5.45;;;23.00;99.90;;;;;;4195170;28;20098;-62
2023/09/10 05:51:00;;;;;;;8.45;5.55;;;23.50;99.90;;;;;;4194051;28;20114;-58
2023/09/10 05:53:01;;;;;;;12.90;5.95;;;24.00;99.90;;;;;;4196304;28;20411;-61
2023/09/10 05:55:03;;;;;;;8.63;5.93;;;24.50;99.90;;;;;;4195166;28;20037;-62
2023/09/10 05:57:04;;;;;;;17.17;6.30;;;24.90;99.90;;;;;;4195691;28;20029;-61
2023/09/10 05:59:06;;;;;;;13.30;5.85;;;25.10;99.70;;;;;;4194785;28;20033;-60
2023/09/10 06:01:08;;;;;;;8.35;5.18;;;25.20;99.10;;;;;;4194247;28;20028;-63
2023/09/10 06:03:09;;;;;;;10.40;5.90;;;25.20;98.80;;;;;;4189981;28;20053;-63
2023/09/10 06:05:11;;;;;;;9.48;5.43;;;25.20;98.60;;;;;;4195668;28;20032;-61
2023/09/10 06:07:12;;;;;;;10.85;5.57;;;24.60;98.70;;;;;;4193333;28;20052;-60
2023/09/10 06:09:13;;;;;;;10.13;5.28;;;24.50;98.90;;;;;;4194921;28;20044;-61
2023/09/10 06:11:14;;;;;;;9.05;5.32;;;24.40;99.00;;;;;;4194265;28;20032;-61
2023/09/10 06:13:15;;;;;;;9.82;5.20;;;24.50;98.90;;;;;;4194389;28;20036;-64
2023/09/10 06:15:16;;;;;;;9.18;5.38;;;24.50;98.90;;;;;;4195104;28;20028;-63
2023/09/10 06:17:18;;;;;;;5.80;4.93;;;24.80;98.80;;;;;;4192978;28;20435;-63
2023/09/10 06:19:19;;;;;;;10.77;5.20;;;24.90;98.40;;;;;;4193996;28;20036;-60
2023/09/10 06:21:21;;;;;;;6.15;5.40;;;24.50;98.60;;;;;;4193953;28;20106;-61
2023/09/10 06:23:22;;;;;;;7.13;4.88;;;24.50;98.70;;;;;;4194106;28;20086;-59
2023/09/10 06:25:24;;;;;;;6.50;5.25;;;24.90;98.50;;;;;;4193909;28;20032;-63
2023/09/10 06:27:25;;;;;;;8.98;5.40;;;25.50;98.00;;;;;;4195390;28;20036;-61
2023/09/10 06:29:26;;;;;;;7.70;5.00;;;25.90;97.50;;;;;;4192977;28;20037;-62
2023/09/10 06:31:27;;;;;;;7.07;4.60;;;25.60;97.40;;;;;;4194872;28;20098;-61
2023/09/10 06:33:29;;;;;;;5.07;4.32;;;25.60;97.60;;;;;;4193100;28;20310;-63
2023/09/10 06:35:30;;;;;;;7.45;4.68;;;25.80;97.50;;;;;;4194287;28;20128;-63
2023/09/10 06:37:32;;;;;;;8.25;5.15;;;26.00;97.20;;;;;;4185880;28;20045;-58
2023/09/10 06:39:38;;;;;;;6.20;4.80;;;26.00;97.00;;;;;;4194355;28;20037;-61
2023/09/10 06:41:39;;;;;;;10.50;5.97;;;26.00;97.00;;;;;;4193905;28;20110;-62
2023/09/10 06:43:40;;;;;;;9.55;5.65;;;26.40;96.70;;;;;;4195100;28;20028;-61
2023/09/10 06:45:43;;;;;;;7.78;5.15;;;25.80;96.80;;;;;;4191316;28;20335;-62
2023/09/10 06:47:44;;;;;;;10.02;5.68;;;25.50;97.20;;;;;;4176182;28;20098;-59
2023/09/10 06:49:45;;;;;;;9.57;5.13;;;25.00;97.30;;;;;;4194925;28;20033;-58
2023/09/10 06:51:46;;;;;;;9.63;5.80;;;24.60;97.80;;;;;;4193797;28;20410;-65
2023/09/10 06:53:47;;;;;;;9.63;5.55;;;24.30;98.10;;;;;;4194439;28;20051;-63
2023/09/10 06:55:48;;;;;;;8.68;6.38;;;24.20;98.40;;;;;;4193839;28;20028;-60
2023/09/10 06:57:50;;;;;;;11.57;5.50;;;24.50;98.20;;;;;;4194853;28;20468;-65
2023/09/10 06:59:51;;;;;;;6.22;5.15;;;24.20;98.50;;;;;;4192731;28;20025;-57
2023/09/10 07:01:52;;;;;;;12.35;6.00;;;24.00;98.70;;;;;;4194346;28;20090;-57
2023/09/10 07:03:53;;;;;;;8.10;6.07;;;23.90;99.00;;;;;;4192917;28;20516;-60
2023/09/10 07:05:54;;;;;;;11.82;6.35;;;23.70;99.20;;;;;;4193398;28;20040;-61
2023/09/10 07:07:55;;;;;;;9.38;5.88;;;23.30;99.50;;;;;;4192983;28;20033;-61
2023/09/10 07:09:57;;;;;;;10.02;5.55;;;23.10;99.90;;;;;;4190698;28;20067;-61
2023/09/10 07:11:58;;;;;;;7.30;5.20;;;23.00;99.90;;;;;;4193750;28;20481;-62
2023/09/10 07:13:59;;;;;;;5.65;4.68;;;22.80;99.90;;;;;;4194805;28;20047;-56
2023/09/10 07:16:00;;;;;;;6.80;5.20;;;22.70;99.90;;;;;;4193897;28;20078;-61
2023/09/10 07:18:01;;;;;;;5.53;4.85;;;22.70;99.90;;;;;;4194286;28;20066;-65
2023/09/10 07:20:03;;;;;;;6.53;4.88;;;22.80;99.90;;;;;;4195003;28;20089;-67
2023/09/10 07:22:04;;;;;;;11.77;5.72;;;22.70;99.90;;;;;;4193667;28;20028;-60
2023/09/10 07:24:06;;;;;;;6.35;4.38;;;22.60;99.90;;;;;;4195234;28;20032;-63
2023/09/10 07:26:07;;;;;;;6.78;4.63;;;22.40;99.90;;;;;;4193211;28;20431;-66
2023/09/10 07:28:09;;;;;;;5.65;3.92;;;22.40;99.90;;;;;;4194653;28;20044;-68
2023/09/10 07:30:11;;;;;;;8.15;4.32;;;22.50;99.90;;;;;;4193412;28;20013;-59
2023/09/10 07:32:12;;;;;;;9.60;4.75;;;22.60;99.90;;;;;;4176434;28;20041;-65
2023/09/10 07:34:13;;;;;;;5.75;3.92;;;22.60;99.90;;;;;;4193349;28;20843;-59
2023/09/10 07:36:15;;;;;;;5.28;3.70;;;22.50;99.90;;;;;;4194217;28;20032;-60
2023/09/10 07:38:16;;;;;;;5.95;4.53;;;22.40;99.90;;;;;;4178519;28;20037;-65
2023/09/10 07:40:17;;;;;;;5.28;4.45;;;22.50;99.90;;;;;;4177632;28;20052;-63
2023/09/10 07:42:18;;;;;;;8.23;3.95;;;22.60;99.90;;;;;;4191934;28;20367;-61
2023/09/10 07:44:19;;;;;;;4.90;3.10;;;22.90;99.90;;;;;;4194188;28;20488;-59
2023/09/10 07:46:21;;;;;;;4.30;3.05;;;22.80;99.90;;;;;;4193724;28;20113;-63
2023/09/10 07:48:22;;;;;;;5.20;3.53;;;22.90;99.90;;;;;;4191992;28;20925;-62
2023/09/10 07:50:23;;;;;;;6.05;3.00;;;23.30;99.90;;;;;;4194029;28;20158;-63
2023/09/10 07:52:24;;;;;;;3.97;2.63;;;23.40;99.40;;;;;;4192969;28;20085;-64
2023/09/10 07:54:25;;;;;;;7.28;3.65;;;23.70;99.10;;;;;;4194546;28;20044;-61
2023/09/10 07:56:27;;;;;;;6.03;2.80;;;24.00;98.80;;;;;;4193392;28;20028;-66
2023/09/10 07:58:28;;;;;;;5.28;2.97;;;24.40;98.10;;;;;;4194056;28;20465;-65
2023/09/10 08:00:34;;;;;;;4.15;2.55;;;24.20;97.50;;;;;;4193271;28;20037;-68
2023/09/10 08:02:35;;;;;;;4.43;2.70;;;24.00;97.50;;;;;;4194136;28;20126;-60
2023/09/10 08:04:36;;;;;;;4.38;2.90;;;23.90;97.50;;;;;;4192191;28;20040;-58
2023/09/10 08:06:37;;;;;;;4.28;2.70;;;23.90;97.60;;;;;;4193100;28;20411;-65
2023/09/10 08:08:38;;;;;;;4.70;2.58;;;24.10;97.50;;;;;;4192017;28;20060;-66
2023/09/10 08:10:42;;;;;;;4.90;2.80;;;24.40;97.40;;;;;;4193165;28;20089;-63
2023/09/10 08:12:43;;;;;;;6.97;3.58;;;24.80;96.90;;;;;;4191047;28;20071;-66
2023/09/10 08:14:44;;;;;;;4.78;2.75;;;24.90;96.50;;;;;;4189248;28;20427;-60
2023/09/10 08:16:45;;;;;;;7.43;2.50;;;25.10;96.30;;;;;;4192399;28;20028;-58
2023/09/10 08:18:47;;;;;;;3.80;2.28;;;25.20;96.20;;;;;;4192782;28;20036;-61
2023/09/10 08:20:48;;;;;;;4.32;2.58;;;25.40;96.10;;;;;;4191712;28;20079;-62
2023/09/10 08:22:49;;;;;;;4.35;2.88;;;25.70;95.80;;;;;;4189692;28;20093;-61
2023/09/10 08:24:53;;;;;;;3.70;2.30;;;25.70;95.50;;;;;;4192160;28;20086;-61
2023/09/10 08:26:54;;;;;;;6.72;2.45;;;25.70;95.50;;;;;;4192627;28;20025;-60
2023/09/10 08:28:55;;;;;;;5.55;2.60;;;25.50;95.40;;;;;;4192538;28;20681;-63
2023/09/10 08:30:57;;;;;;;3.65;2.75;;;25.60;95.40;;;;;;4192131;28;20028;-60
2023/09/10 08:32:59;;;;;;;5.15;2.50;;;25.40;95.20;;;;;;4193883;28;20085;-66
2023/09/10 08:35:00;;;;;;;3.65;2.67;;;25.30;95.30;;;;;;4193503;28;20024;-67
2023/09/10 08:37:05;;;;;;;6.60;2.92;;;25.30;95.20;;;;;;4193932;28;20029;-59
2023/09/10 08:39:06;;;;;;;5.28;2.88;;;25.30;95.20;;;;;;4192792;28;20124;-59
2023/09/10 08:41:28;;;;;;;6.80;2.65;;;25.00;95.20;;;;;;4192026;28;20062;-61
2023/09/10 08:43:46;;;;;;;5.97;2.97;;;24.80;95.40;;;;;;4192516;28;20040;-67
2023/09/10 08:45:49;;;;;;;4.28;2.95;;;24.90;95.60;;;;;;4193517;28;20399;-64
2023/09/10 08:47:55;;;;;;;4.55;3.08;;;24.90;95.50;;;;;;4190345;28;20074;-61
2023/09/10 08:50:02;;;;;;;5.65;2.92;;;24.80;95.60;;;;;;4193278;28;20411;-60
2023/09/10 08:52:04;;;;;;;5.75;3.08;;;24.90;95.50;;;;;;4192517;28;20142;-61
2023/09/10 08:54:07;;;;;;;5.03;2.45;;;25.00;95.60;;;;;;4193104;28;20090;-60
2023/09/10 08:56:10;;;;;;;4.90;2.53;;;25.10;95.30;;;;;;4190769;28;20052;-60
2023/09/10 08:58:12;;;;;;;3.30;2.85;;;25.00;95.20;;;;;;4193950;28;20024;-64
2023/09/10 09:00:14;;;;;;;3.72;2.75;;;25.00;95.20;;;;;;4197705;28;20082;-65
2023/09/10 09:02:15;;;;;;;3.90;2.75;;;25.10;95.20;;;;;;4198207;28;20137;-65
2023/09/10 09:04:17;;;;;;;6.53;2.85;;;25.10;95.10;;;;;;4196131;28;20090;-64
2023/09/10 09:06:18;;;;;;;7.13;3.25;;;25.20;95.20;;;;;;4198762;28;20024;-61
2023/09/10 09:08:28;;;;;;;6.18;3.08;;;25.20;95.10;;;;;;4198623;28;20044;-62
2023/09/10 09:10:30;;;;;;;3.75;2.92;;;25.20;95.30;;;;;;4180871;28;20178;-60
2023/09/10 09:12:32;;;;;;;3.55;3.05;;;25.20;95.30;;;;;;4198124;28;20040;-62
2023/09/10 09:14:37;;;;;;;5.88;2.97;;;25.20;95.10;;;;;;4197398;28;20036;-61
2023/09/10 09:16:40;;;;;;;3.63;2.97;;;25.10;95.10;;;;;;4181048;28;20025;-70
2023/09/10 09:18:42;;;;;;;4.30;2.80;;;25.00;95.10;;;;;;4197420;28;20461;-72
2023/09/10 09:20:46;;;;;;;5.63;3.40;;;25.10;95.10;;;;;;4198615;28;20044;-65
2023/09/10 09:22:50;;;;;;;5.13;2.65;;;25.20;95.10;;;;;;4196922;28;20033;-66
2023/09/10 09:24:51;;;;;;;10.18;2.72;;;25.20;94.90;;;;;;4198713;28;20516;-64
2023/09/10 09:26:53;;;;;;;7.07;3.22;;;25.10;94.90;;;;;;4197744;28;20032;-66
2023/09/10 09:28:56;;;;;;;3.67;3.05;;;25.20;94.80;;;;;;4197698;28;20113;-65
2023/09/10 09:30:57;;;;;;;4.18;3.28;;;25.30;94.70;;;;;;4197817;28;20029;-65
2023/09/10 09:32:58;;;;;;;5.85;3.00;;;25.20;94.70;;;;;;4198549;28;20044;-66
2023/09/10 09:34:59;;;;;;;5.18;3.35;;;25.20;94.70;;;;;;4197825;28;20109;-62
2023/09/10 09:37:01;;;;;;;4.43;2.90;;;25.30;94.70;;;;;;4197995;28;20045;-62
2023/09/10 09:39:07;;;;;;;4.68;3.05;;;25.50;94.70;;;;;;4197762;28;20029;-64
2023/09/10 09:41:08;;;;;;;4.93;2.78;;;25.80;94.60;;;;;;4198598;28;20449;-70
2023/09/10 09:43:11;;;;;;;7.38;2.97;;;26.00;94.40;;;;;;4195992;28;20445;-65
2023/09/10 09:45:12;;;;;;;4.85;3.03;;;26.00;94.20;;;;;;4197444;28;20036;-64
2023/09/10 09:47:14;;;;;;;7.63;2.67;;;25.80;94.10;;;;;;4198766;28;20037;-62
2023/09/10 09:49:16;;;;;;;9.80;2.88;;;25.70;94.30;;;;;;4197820;28;20028;-63
2023/09/10 09:51:19;;;;;;;4.05;2.55;;;25.80;94.30;;;;;;4199057;28;20040;-63
2023/09/10 09:53:24;;;;;;;4.28;2.50;;;25.80;94.00;;;;;;4198058;28;20029;-63
2023/09/10 09:55:26;;;;;;;5.35;3.10;;;25.90;94.00;;;;;;4198122;28;20041;-62
2023/09/10 09:57:27;;;;;;;62.08;11.68;;;25.80;93.90;;;;;;4196759;28;20436;-63
2023/09/10 09:59:28;;;;;;;4.47;2.70;;;25.90;94.10;;;;;;4198640;28;20040;-64
2023/09/10 10:01:29;;;;;;;3.17;2.50;;;26.00;94.10;;;;;;4196768;28;20098;-64
2023/09/10 10:03:32;;;;;;;5.40;2.80;;;26.20;94.00;;;;;;4198476;28;20032;-63
2023/09/10 10:05:33;;;;;;;9.57;3.10;;;26.20;94.00;;;;;;4197887;28;20036;-64
2023/09/10 10:07:36;;;;;;;3.17;2.60;;;26.30;93.80;;;;;;4197871;28;20041;-63
2023/09/10 10:09:41;;;;;;;8.95;3.40;;;26.30;93.70;;;;;;4195550;28;20184;-62
2023/09/10 10:11:42;;;;;;;4.07;3.10;;;26.40;93.80;;;;;;4195478;28;20028;-64
2023/09/10 10:13:44;;;;;;;5.40;2.65;;;26.50;93.60;;;;;;4195011;28;20046;-65
2023/09/10 10:15:50;;;;;;;4.43;2.70;;;26.60;93.40;;;;;;4195525;28;20016;-65
2023/09/10 10:17:53;;;;;;;4.25;3.17;;;26.60;93.50;;;;;;4195230;28;20032;-62
2023/09/10 10:19:55;;;;;;;6.13;2.97;;;26.70;93.50;;;;;;4194328;28;20040;-62
2023/09/10 10:21:56;;;;;;;7.15;3.25;;;26.80;93.50;;;;;;4195494;28;20366;-62
2023/09/10 10:23:58;;;;;;;4.82;2.70;;;26.90;93.40;;;;;;4194869;28;20138;-62
2023/09/10 10:26:04;;;;;;;4.85;2.60;;;27.10;93.30;;;;;;4195992;28;20033;-63
2023/09/10 10:28:09;;;;;;;4.57;2.90;;;27.10;92.90;;;;;;4193621;28;20068;-62
2023/09/10 10:30:10;;;;;;;4.13;2.58;;;26.70;92.80;;;;;;4194476;28;20040;-63
2023/09/10 10:32:30;;;;;;;4.30;2.83;;;26.60;92.90;;;;;;4194594;28;20086;-63
2023/09/10 10:34:39;;;;;;;5.25;2.90;;;26.50;92.70;;;;;;4195651;28;20434;-63
2023/09/10 10:37:15;;;;;;;4.93;2.60;;;26.40;92.70;;;;;;4195076;28;20029;-63